Kezdőlap
METAR-TAF:

METAR-TAF

Repülőterek :

Narsarsuaq, Grönland

földrajzi szélesség: 61-10N, földrajzi hosszúság: 045-25W, magasság: 34 m

Jelenlegi meteorológiai megfigyelések

A jelentés 36 perccel ezelõtt készült, 17:50 UTC
Nyugat-délnyugati szél 4 kt, délnyugati és nyugati között változik
Hőmérséklet 2°C
Páratartalom 47%
Légköri nyomás 1029 hPa
Látótávolság 10 km, vagy több
Szakadozott felhőzet 19000 lábon

METAR: BGBW 011750Z 25004KT 220V280 9999 BKN190 02/M08 Q1029

Idő: 16:26 (18:26 UTC)

Előrejelzés

A jelentés 4 órával és 27 perccel ezelõtt készült, 13:59 UTC
Az előrejelzés 01-én 15 óra UTC és 01-én 20 óra UTC között érvényes
Nyugat-délnyugati szél 6 kt
Látótávolság 10 km, vagy több
Szakadozott felhőzet 20000 lábon

TAF: BGBW 011359Z 0115/0120 24006KT 9999 BKN200

Meteorológiai megfigyelések és előrejelzések több, mint 4000 repülőtéren (METAR és TAF jelentéseket).

A térképen piros és sárga pontok jelzik az elérhető meteorológiai állomásokat.

Mozgassa az egeret a pont fölött, hogy megjelenjen az állomás neve.

Azután kattintson az időjárási megfigyelések és előrejelzések megtekintéséhez.

A térkép megváltoztatása: kattintson a fekete keresztel jelölt zöld gombra ráközelítéshez, a vonallal jelölt zöld gombra távolításhoz, vagy a zöld nyilakra a szomszédos térképek eléréséhez.


METAR-TAF: